createdAt,value
2019-04-10T00:02:21.801Z,2.69
2019-04-10T00:05:27.742Z,2.69
2019-04-10T00:08:33.018Z,2.56
2019-04-10T00:11:38.246Z,2.32
2019-04-10T00:14:43.410Z,2.36
2019-04-10T00:17:49.288Z,2.39
2019-04-10T00:20:54.734Z,2.29
2019-04-10T00:24:00.112Z,2.41
2019-04-10T00:27:06.133Z,2.39
2019-04-10T00:30:11.556Z,2.36
2019-04-10T00:33:16.872Z,2.13
2019-04-10T00:36:22.192Z,2.08
2019-04-10T00:39:27.660Z,2.08
2019-04-10T00:42:34.855Z,1.98
2019-04-10T00:45:40.195Z,2.17
2019-04-10T00:48:45.582Z,2.09
2019-04-10T00:51:51.945Z,2.14
2019-04-10T00:54:59.170Z,2.05
2019-04-10T00:58:05.726Z,1.94
2019-04-10T01:01:11.812Z,1.93
2019-04-10T01:04:18.129Z,1.76
2019-04-10T01:07:35.236Z,1.61
2019-04-10T01:10:30.636Z,1.56
2019-04-10T01:13:36.883Z,1.53
2019-04-10T01:16:42.332Z,1.78
2019-04-10T01:19:48.086Z,1.56
2019-04-10T01:22:53.429Z,1.43
2019-04-10T01:25:58.899Z,1.42
2019-04-10T01:29:05.144Z,1.36
2019-04-10T01:32:10.627Z,1.39
2019-04-10T01:35:16.174Z,1.18
2019-04-10T01:38:21.809Z,1.38
2019-04-10T01:41:27.848Z,1.14
2019-04-10T01:44:33.275Z,1.08
2019-04-10T01:47:39.333Z,1.06
2019-04-10T01:50:46.476Z,1.10
2019-04-10T01:53:52.355Z,1.02
2019-04-10T01:56:57.810Z,0.96
2019-04-10T02:00:04.574Z,0.91
2019-04-10T02:03:10.207Z,0.74
2019-04-10T02:06:16.930Z,0.83
2019-04-10T02:09:23.355Z,0.93
2019-04-10T02:12:28.727Z,0.94
2019-04-10T02:15:34.294Z,0.87
2019-04-10T02:18:41.543Z,0.74
2019-04-10T02:21:47.731Z,0.79
2019-04-10T02:24:53.502Z,0.97
2019-04-10T02:27:59.186Z,0.88
2019-04-10T02:31:04.838Z,0.94
2019-04-10T02:34:10.229Z,0.94
2019-04-10T02:37:17.019Z,0.91
2019-04-10T02:40:23.567Z,0.94
2019-04-10T02:43:29.413Z,0.76
2019-04-10T02:46:34.742Z,0.80
2019-04-10T02:49:40.406Z,0.65
2019-04-10T02:52:46.581Z,0.61
2019-04-10T02:55:53.689Z,0.53
2019-04-10T02:58:59.150Z,0.46
2019-04-10T03:02:06.209Z,0.31
2019-04-10T03:05:13.429Z,0.29
2019-04-10T03:08:34.986Z,0.31
2019-04-10T03:11:26.476Z,0.36
2019-04-10T03:14:32.634Z,0.31
2019-04-10T03:17:38.102Z,0.36
2019-04-10T03:20:43.323Z,0.23
2019-04-10T03:23:49.379Z,0.25
2019-04-10T03:26:54.926Z,0.23
2019-04-10T03:30:00.242Z,0.17
2019-04-10T03:33:21.895Z,0.16
2019-04-10T03:36:27.373Z,0.14
2019-04-10T03:39:35.534Z,0.13
2019-04-10T03:42:39.702Z,-0.01
2019-04-10T03:45:44.944Z,-0.02
2019-04-10T03:48:51.438Z,-0.03
2019-04-10T03:51:56.772Z,-0.23
2019-04-10T03:55:03.061Z,-0.24
2019-04-10T03:58:09.297Z,-0.30
2019-04-10T04:01:14.587Z,-0.40
2019-04-10T04:04:19.831Z,-0.38
2019-04-10T04:07:27.000Z,-0.52
2019-04-10T04:10:33.123Z,-0.73
2019-04-10T04:13:38.335Z,-0.41
2019-04-10T04:16:43.905Z,-0.36
2019-04-10T04:19:49.157Z,-0.58
2019-04-10T04:22:54.876Z,-0.51
2019-04-10T04:26:00.999Z,-0.54
2019-04-10T04:29:07.422Z,-0.39
2019-04-10T04:32:13.422Z,-0.42
2019-04-10T04:35:19.964Z,-0.35
2019-04-10T04:38:25.633Z,-0.41
2019-04-10T04:41:31.638Z,-0.28
2019-04-10T04:44:37.656Z,-0.13
2019-04-10T04:47:43.324Z,-0.24
2019-04-10T04:50:48.669Z,-0.00
2019-04-10T04:53:54.725Z,0.05
2019-04-10T04:57:00.213Z,0.19
2019-04-10T05:00:06.274Z,0.16
2019-04-10T05:03:12.879Z,0.54
2019-04-10T05:06:20.138Z,1.03
2019-04-10T05:09:31.060Z,1.47
2019-04-10T05:12:32.622Z,2.01
2019-04-10T05:15:37.841Z,2.40
2019-04-10T05:18:44.099Z,2.73
2019-04-10T05:21:49.828Z,3.03
2019-04-10T05:24:56.232Z,2.96
2019-04-10T05:28:01.724Z,3.16
2019-04-10T05:31:06.975Z,4.13
2019-04-10T05:34:12.263Z,4.52
2019-04-10T05:37:17.454Z,4.64
2019-04-10T05:40:23.814Z,4.12
2019-04-10T05:43:29.186Z,5.25
2019-04-10T05:46:34.627Z,4.41
2019-04-10T05:49:39.995Z,4.24
2019-04-10T05:52:45.229Z,4.72
2019-04-10T05:55:53.795Z,4.90
2019-04-10T05:59:00.610Z,5.03
2019-04-10T06:02:06.774Z,4.69
2019-04-10T06:05:14.326Z,4.20
2019-04-10T06:08:19.550Z,5.64
2019-04-10T06:11:24.811Z,5.59
2019-04-10T06:14:30.409Z,6.58
2019-04-10T06:17:35.906Z,6.50
2019-04-10T06:20:41.772Z,6.63
2019-04-10T06:23:47.668Z,7.16
2019-04-10T06:26:54.057Z,7.82
2019-04-10T06:29:59.474Z,7.74
2019-04-10T06:33:04.774Z,7.82
2019-04-10T06:36:11.200Z,7.00
2019-04-10T06:39:16.618Z,7.79
2019-04-10T06:42:22.539Z,7.86
2019-04-10T06:45:28.069Z,7.75
2019-04-10T06:48:34.222Z,7.91
2019-04-10T06:51:39.645Z,7.94
2019-04-10T06:54:44.924Z,6.98
2019-04-10T06:57:55.801Z,7.00
2019-04-10T07:00:58.069Z,6.05
2019-04-10T07:04:07.601Z,6.57
2019-04-10T07:07:13.959Z,6.07
2019-04-10T07:10:25.913Z,6.20
2019-04-10T07:13:26.053Z,6.29
2019-04-10T07:16:33.048Z,6.30
2019-04-10T07:19:41.408Z,6.13
2019-04-10T07:22:47.181Z,6.20
2019-04-10T07:25:54.874Z,6.44
2019-04-10T07:29:00.547Z,6.40
2019-04-10T07:32:09.616Z,6.24
2019-04-10T07:35:16.632Z,6.44
2019-04-10T07:38:21.365Z,6.49
2019-04-10T07:41:27.310Z,6.51
2019-04-10T07:44:34.995Z,6.19
2019-04-10T07:47:40.257Z,6.30
2019-04-10T07:50:47.043Z,6.53
2019-04-10T07:53:52.878Z,6.43
2019-04-10T07:56:58.124Z,6.46
2019-04-10T08:00:03.513Z,6.43
2019-04-10T08:03:10.467Z,5.49
2019-04-10T08:06:15.849Z,6.16
2019-04-10T08:09:22.104Z,5.94
2019-04-10T08:12:37.616Z,6.00
2019-04-10T08:15:34.285Z,5.98
2019-04-10T08:18:39.575Z,6.13
2019-04-10T08:21:44.893Z,5.61
2019-04-10T08:24:51.705Z,6.26
2019-04-10T08:27:57.140Z,6.23
2019-04-10T08:31:02.438Z,6.30
2019-04-10T08:34:08.818Z,5.89
2019-04-10T08:37:14.489Z,6.09
2019-04-10T08:40:21.141Z,6.43
2019-04-10T08:43:26.733Z,6.58
2019-04-10T08:46:33.650Z,6.78
2019-04-10T08:49:39.161Z,6.71
2019-04-10T08:52:44.625Z,6.57
2019-04-10T08:55:50.465Z,6.74
2019-04-10T08:58:57.180Z,6.71
2019-04-10T09:02:02.569Z,6.69
2019-04-10T09:05:09.862Z,7.01
2019-04-10T09:08:15.158Z,7.04
2019-04-10T09:11:26.539Z,7.09
2019-04-10T09:14:27.700Z,7.24
2019-04-10T09:17:33.459Z,7.03
2019-04-10T09:20:39.002Z,7.34
2019-04-10T09:23:50.232Z,7.62
2019-04-10T09:26:51.281Z,7.22
2019-04-10T09:29:56.538Z,7.24
2019-04-10T09:33:14.709Z,7.40
2019-04-10T09:36:09.070Z,7.35
2019-04-10T09:39:17.161Z,7.46
2019-04-10T09:42:23.596Z,7.24
2019-04-10T09:45:28.938Z,7.67
2019-04-10T09:48:34.244Z,7.59
2019-04-10T09:51:40.424Z,7.61
2019-04-10T09:54:46.722Z,7.44
2019-04-10T09:57:52.133Z,7.79
2019-04-10T10:01:01.586Z,8.17
2019-04-10T10:04:07.387Z,8.70
2019-04-10T10:07:12.639Z,8.96
2019-04-10T10:10:18.150Z,8.82
2019-04-10T10:13:23.583Z,8.77
2019-04-10T10:16:30.244Z,9.06
2019-04-10T10:19:36.346Z,8.77
2019-04-10T10:22:42.691Z,9.04
2019-04-10T10:25:49.420Z,9.42
2019-04-10T10:28:54.663Z,9.15
2019-04-10T10:32:00.402Z,9.65
2019-04-10T10:35:07.248Z,9.99
2019-04-10T10:38:14.809Z,9.65
2019-04-10T10:41:20.291Z,9.81
2019-04-10T10:44:25.914Z,9.42
2019-04-10T10:47:32.468Z,9.65
2019-04-10T10:50:39.533Z,10.14
2019-04-10T10:53:44.869Z,9.99
2019-04-10T10:56:50.924Z,9.80
2019-04-10T10:59:57.716Z,10.01
2019-04-10T11:03:03.024Z,10.15
2019-04-10T11:06:09.342Z,10.43
2019-04-10T11:09:15.910Z,11.23
2019-04-10T11:12:22.015Z,10.34
2019-04-10T11:15:27.843Z,10.54
2019-04-10T11:18:33.174Z,10.83
2019-04-10T11:21:52.354Z,10.97
2019-04-10T11:24:51.719Z,11.14
2019-04-10T11:27:58.363Z,10.87
2019-04-10T11:31:04.629Z,11.12
2019-04-10T11:34:11.186Z,10.93
2019-04-10T11:37:26.973Z,10.35
2019-04-10T11:40:26.728Z,10.30
2019-04-10T11:43:33.448Z,10.23
2019-04-10T11:46:41.462Z,10.25
2019-04-10T11:49:47.139Z,10.28
2019-04-10T11:52:53.506Z,10.83
2019-04-10T11:56:03.245Z,10.44
2019-04-10T11:59:09.194Z,10.39
2019-04-10T12:02:14.531Z,9.91
2019-04-10T12:05:21.921Z,10.31
2019-04-10T12:11:35.162Z,10.00
2019-04-10T12:14:41.677Z,9.86
2019-04-10T12:17:47.137Z,10.26
2019-04-10T12:20:53.515Z,10.41
2019-04-10T12:23:58.989Z,10.27
2019-04-10T12:27:04.539Z,9.74
2019-04-10T12:30:11.121Z,9.65
2019-04-10T12:33:17.109Z,10.37
2019-04-10T12:36:24.486Z,10.81
2019-04-10T12:39:30.154Z,10.62
2019-04-10T12:42:36.452Z,10.34
2019-04-10T12:45:41.845Z,10.72
2019-04-10T12:48:47.299Z,10.09
2019-04-10T12:51:54.103Z,9.99
2019-04-10T12:54:59.572Z,9.54
2019-04-10T12:58:11.077Z,9.39
2019-04-10T13:01:12.819Z,9.05
2019-04-10T13:04:18.099Z,9.09
2019-04-10T13:07:23.419Z,9.59
2019-04-10T13:10:29.515Z,9.98
2019-04-10T13:13:35.894Z,10.43
2019-04-10T13:16:41.773Z,10.78
2019-04-10T13:19:49.194Z,10.86
2019-04-10T13:22:54.652Z,9.92
2019-04-10T13:26:01.798Z,9.88
2019-04-10T13:29:07.748Z,9.67
2019-04-10T13:32:13.894Z,9.59
2019-04-10T13:35:19.183Z,9.71
2019-04-10T13:38:30.158Z,9.88
2019-04-10T13:41:32.352Z,9.91
2019-04-10T13:44:38.397Z,9.66
2019-04-10T13:47:44.895Z,9.64
2019-04-10T13:50:50.804Z,9.74
2019-04-10T13:53:56.576Z,9.61
2019-04-10T13:57:02.037Z,9.49
2019-04-10T14:00:12.058Z,9.46
2019-04-10T14:03:19.180Z,9.71
2019-04-10T14:06:25.423Z,9.86
2019-04-10T14:09:40.576Z,9.79
2019-04-10T14:12:38.962Z,9.81
2019-04-10T14:15:44.350Z,9.68
2019-04-10T14:18:53.000Z,9.40
2019-04-10T14:21:59.619Z,9.32
2019-04-10T14:25:07.306Z,9.53
2019-04-10T14:28:13.097Z,9.69
2019-04-10T14:31:24.659Z,9.50
2019-04-10T14:34:30.967Z,9.66
2019-04-10T14:37:37.941Z,9.74
2019-04-10T14:40:43.875Z,9.52
2019-04-10T14:43:50.082Z,9.53
2019-04-10T14:46:55.592Z,9.63
2019-04-10T14:50:01.963Z,9.44
2019-04-10T14:53:07.653Z,9.55
2019-04-10T14:56:13.699Z,9.47
2019-04-10T14:59:19.826Z,9.63
2019-04-10T15:02:26.369Z,9.53
2019-04-10T15:05:32.608Z,9.46
2019-04-10T15:08:39.640Z,9.51
2019-04-10T15:11:46.844Z,9.70
2019-04-10T15:14:54.345Z,9.75
2019-04-10T15:17:59.622Z,9.84
2019-04-10T15:21:04.901Z,9.66
2019-04-10T15:24:11.078Z,9.47
2019-04-10T15:27:17.323Z,9.50
2019-04-10T15:30:23.555Z,9.82
2019-04-10T15:33:28.997Z,9.65
2019-04-10T15:36:34.272Z,9.65
2019-04-10T15:39:41.471Z,9.33
2019-04-10T15:42:46.574Z,9.52
2019-04-10T15:45:52.551Z,9.49
2019-04-10T15:48:58.468Z,9.46
2019-04-10T15:52:05.858Z,9.59
2019-04-10T15:55:13.352Z,9.61
2019-04-10T15:58:19.366Z,9.36
2019-04-10T16:01:27.829Z,9.51
2019-04-10T16:04:31.783Z,9.59
2019-04-10T16:07:38.282Z,9.52
2019-04-10T16:11:14.953Z,9.56
2019-04-10T16:14:24.529Z,9.48
2019-04-10T16:17:39.697Z,9.56
2019-04-10T16:20:47.305Z,9.35
2019-04-10T16:23:58.546Z,9.40
2019-04-10T16:27:03.823Z,9.21
2019-04-10T16:30:15.938Z,9.17
2019-04-10T16:33:21.630Z,9.14
2019-04-10T16:36:27.911Z,9.23
2019-04-10T16:39:34.384Z,9.20
2019-04-10T16:42:40.361Z,9.06
2019-04-10T16:45:46.943Z,9.06
2019-04-10T16:48:52.558Z,8.95
2019-04-10T16:51:58.734Z,9.04
2019-04-10T16:55:04.279Z,8.94
2019-04-10T16:58:11.700Z,8.89
2019-04-10T17:01:18.211Z,8.92
2019-04-10T17:04:23.559Z,8.85
2019-04-10T17:07:28.968Z,8.89
2019-04-10T17:10:36.559Z,8.79
2019-04-10T17:13:42.553Z,8.67
2019-04-10T17:16:50.304Z,8.74
2019-04-10T17:19:57.610Z,8.46
2019-04-10T17:23:02.684Z,8.44
2019-04-10T17:26:08.917Z,8.46
2019-04-10T17:29:14.651Z,8.37
2019-04-10T17:32:21.334Z,8.36
2019-04-10T17:35:27.582Z,8.33
2019-04-10T17:38:34.744Z,8.01
2019-04-10T17:41:40.035Z,8.06
2019-04-10T17:44:45.657Z,8.08
2019-04-10T17:47:51.466Z,7.97
2019-04-10T17:50:57.858Z,7.73
2019-04-10T17:54:04.696Z,7.35
2019-04-10T17:57:10.728Z,7.35
2019-04-10T18:00:25.471Z,7.58
2019-04-10T18:03:44.842Z,7.52
2019-04-10T18:06:37.904Z,7.30
2019-04-10T18:09:43.357Z,7.26
2019-04-10T18:12:49.691Z,7.18
2019-04-10T18:15:57.028Z,7.03
2019-04-10T18:19:02.291Z,6.95
2019-04-10T18:22:07.680Z,7.08
2019-04-10T18:25:13.856Z,6.73
2019-04-10T18:28:19.418Z,6.50
2019-04-10T18:31:26.477Z,6.26
2019-04-10T18:34:31.732Z,6.00
2019-04-10T18:37:39.225Z,6.02
2019-04-10T18:40:55.024Z,5.69
2019-04-10T18:43:51.521Z,5.48
2019-04-10T18:46:56.773Z,5.48
2019-04-10T18:50:02.895Z,5.60
2019-04-10T18:53:08.765Z,5.61
2019-04-10T18:56:16.684Z,5.31
2019-04-10T18:59:28.973Z,5.30
2019-04-10T19:03:03.342Z,5.18
2019-04-10T19:06:12.219Z,5.23
2019-04-10T19:09:24.591Z,4.97
2019-04-10T19:12:26.463Z,4.72
2019-04-10T19:15:32.655Z,4.67
2019-04-10T19:18:38.116Z,5.04
2019-04-10T19:21:43.897Z,4.95
2019-04-10T19:24:54.478Z,4.83
2019-04-10T19:28:00.418Z,4.79
2019-04-10T19:31:16.595Z,4.68
2019-04-10T19:34:17.563Z,4.47
2019-04-10T19:37:22.979Z,4.27
2019-04-10T19:40:29.843Z,4.22
2019-04-10T19:43:35.253Z,4.34
2019-04-10T19:46:41.803Z,4.30
2019-04-10T19:49:47.188Z,4.27
2019-04-10T19:52:52.859Z,4.21
2019-04-10T19:55:58.155Z,4.33
2019-04-10T19:59:03.458Z,4.02
2019-04-10T20:02:08.825Z,3.85
2019-04-10T20:05:14.993Z,3.74
2019-04-10T20:08:20.395Z,3.93
2019-04-10T20:11:37.572Z,3.87
2019-04-10T20:14:34.728Z,3.68
2019-04-10T20:17:42.202Z,3.44
2019-04-10T20:20:47.756Z,3.21
2019-04-10T20:23:54.414Z,3.35
2019-04-10T20:26:59.770Z,3.18
2019-04-10T20:30:05.771Z,3.11
2019-04-10T20:33:11.479Z,3.04
2019-04-10T20:36:17.212Z,3.25
2019-04-10T20:39:23.273Z,3.16
2019-04-10T20:42:29.915Z,3.53
2019-04-10T20:45:37.925Z,3.58
2019-04-10T20:48:44.564Z,3.78
2019-04-10T20:51:50.522Z,3.69
2019-04-10T20:54:55.921Z,3.65
2019-04-10T20:58:02.606Z,3.61
2019-04-10T21:01:08.373Z,3.35
2019-04-10T21:04:15.093Z,3.24
2019-04-10T21:07:21.351Z,3.11
2019-04-10T21:10:26.726Z,3.09
2019-04-10T21:13:32.070Z,2.99
2019-04-10T21:16:37.858Z,2.87
2019-04-10T21:19:43.492Z,2.75
2019-04-10T21:22:49.333Z,2.78
2019-04-10T21:25:55.369Z,2.83
2019-04-10T21:29:02.817Z,2.81
2019-04-10T21:32:21.657Z,3.19
2019-04-10T21:35:30.890Z,3.17
2019-04-10T21:38:36.520Z,2.98
2019-04-10T21:41:41.910Z,3.00
2019-04-10T21:44:47.166Z,2.94
2019-04-10T21:47:54.377Z,2.99
2019-04-10T21:51:00.601Z,2.93
2019-04-10T21:54:06.407Z,2.90
2019-04-10T21:57:11.802Z,2.96
2019-04-10T22:00:20.387Z,2.89
2019-04-10T22:03:35.756Z,3.09
2019-04-10T22:07:01.343Z,3.08
2019-04-10T22:10:23.876Z,2.70
2019-04-10T22:13:30.198Z,2.78
2019-04-10T22:16:35.814Z,3.01
2019-04-10T22:19:41.066Z,2.73
2019-04-10T22:22:47.067Z,2.60
2019-04-10T22:25:54.262Z,2.87
2019-04-10T22:28:59.719Z,2.87
2019-04-10T22:32:06.294Z,2.75
2019-04-10T22:35:11.980Z,2.69
2019-04-10T22:38:17.462Z,2.81
2019-04-10T22:41:28.526Z,2.96
2019-04-10T22:44:36.656Z,2.74
2019-04-10T22:47:39.415Z,2.44
2019-04-10T22:50:45.021Z,2.26
2019-04-10T22:53:50.586Z,2.14
2019-04-10T22:56:56.544Z,2.23
2019-04-10T23:00:05.416Z,1.93
2019-04-10T23:03:13.321Z,1.70
2019-04-10T23:06:18.867Z,1.57
2019-04-10T23:09:24.350Z,1.40
2019-04-10T23:12:30.043Z,1.38
2019-04-10T23:15:35.704Z,1.45
2019-04-10T23:18:41.397Z,1.29
2019-04-10T23:21:47.031Z,1.25
2019-04-10T23:24:54.096Z,1.22
2019-04-10T23:28:01.122Z,1.37
2019-04-10T23:31:07.587Z,1.32
2019-04-10T23:34:13.105Z,1.46
2019-04-10T23:37:18.491Z,1.41
2019-04-10T23:40:25.008Z,1.29
2019-04-10T23:43:31.480Z,1.14
2019-04-10T23:46:36.869Z,1.10
2019-04-10T23:49:42.239Z,0.95
2019-04-10T23:52:47.871Z,0.79
2019-04-10T23:55:54.413Z,0.66
2019-04-10T23:58:59.813Z,0.68
